createdAt,value
2023-05-09T00:02:15.068Z,23.97
2023-05-09T00:04:45.047Z,23.53
2023-05-09T00:07:13.594Z,24.27
2023-05-09T00:09:41.891Z,23.70
2023-05-09T00:12:13.093Z,24.27
2023-05-09T00:14:41.507Z,23.10
2023-05-09T00:17:09.970Z,24.30
2023-05-09T00:19:39.149Z,22.67
2023-05-09T00:22:09.357Z,22.37
2023-05-09T00:24:37.702Z,21.30
2023-05-09T00:27:06.016Z,20.53
2023-05-09T00:29:34.412Z,21.87
2023-05-09T00:32:02.752Z,20.47
2023-05-09T00:34:31.157Z,20.60
2023-05-09T00:36:59.690Z,19.67
2023-05-09T00:39:29.473Z,19.87
2023-05-09T00:41:57.885Z,20.13
2023-05-09T00:44:26.208Z,19.33
2023-05-09T00:46:57.706Z,19.33
2023-05-09T00:49:26.281Z,18.80
2023-05-09T00:51:54.688Z,20.90
2023-05-09T00:54:23.047Z,19.60
2023-05-09T00:56:52.833Z,19.07
2023-05-09T00:59:22.022Z,19.57
2023-05-09T01:01:50.516Z,19.93
2023-05-09T01:04:19.063Z,20.00
2023-05-09T01:06:55.813Z,19.20
2023-05-09T01:09:26.590Z,18.33
2023-05-09T01:11:58.274Z,19.13
2023-05-09T01:14:27.050Z,19.17
2023-05-09T01:16:56.434Z,18.47
2023-05-09T01:19:30.681Z,18.50
2023-05-09T01:21:59.508Z,18.20
2023-05-09T01:24:33.346Z,19.00
2023-05-09T01:27:07.890Z,17.90
2023-05-09T01:29:38.494Z,17.53
2023-05-09T01:32:08.293Z,17.60
2023-05-09T01:34:36.549Z,16.63
2023-05-09T01:37:05.377Z,16.80
2023-05-09T01:39:34.752Z,17.03
2023-05-09T01:42:03.893Z,15.47
2023-05-09T01:44:33.071Z,13.13
2023-05-09T01:47:02.740Z,15.30
2023-05-09T01:49:31.389Z,13.80
2023-05-09T01:51:59.719Z,14.20
2023-05-09T01:54:28.132Z,14.27
2023-05-09T01:56:56.586Z,14.20
2023-05-09T01:59:24.940Z,12.63
2023-05-09T02:01:55.112Z,13.20
2023-05-09T02:04:24.895Z,14.13
2023-05-09T02:06:53.336Z,13.97
2023-05-09T02:09:21.682Z,14.37
2023-05-09T02:11:50.070Z,14.07
2023-05-09T02:14:18.519Z,14.57
2023-05-09T02:16:46.886Z,14.20
2023-05-09T02:19:15.311Z,14.23
2023-05-09T02:21:45.102Z,14.60
2023-05-09T02:24:14.022Z,14.43
2023-05-09T02:26:42.369Z,14.17
2023-05-09T02:29:10.877Z,14.57
2023-05-09T02:31:39.142Z,13.73
2023-05-09T02:34:07.781Z,14.60
2023-05-09T02:36:36.058Z,14.90
2023-05-09T02:39:05.843Z,15.03
2023-05-09T02:41:34.333Z,15.20
2023-05-09T02:44:03.364Z,15.97
2023-05-09T02:46:31.864Z,15.50
2023-05-09T02:49:00.255Z,15.30
2023-05-09T02:51:28.761Z,14.57
2023-05-09T02:53:57.645Z,14.77
2023-05-09T02:56:27.357Z,15.33
2023-05-09T02:58:55.692Z,14.40
2023-05-09T03:01:24.271Z,15.07
2023-05-09T03:03:52.705Z,15.20
2023-05-09T03:06:21.150Z,14.50
2023-05-09T03:08:49.585Z,14.60
2023-05-09T03:11:18.028Z,14.00
2023-05-09T03:13:47.812Z,14.70
2023-05-09T03:16:16.285Z,14.97
2023-05-09T03:18:44.705Z,15.40
2023-05-09T03:21:13.277Z,15.53
2023-05-09T03:23:41.685Z,15.53
2023-05-09T03:26:09.992Z,14.93
2023-05-09T03:28:38.439Z,14.70
2023-05-09T03:31:08.399Z,15.00
2023-05-09T03:33:37.079Z,14.30
2023-05-09T03:36:06.286Z,15.20
2023-05-09T03:38:34.635Z,15.57
2023-05-09T03:41:03.306Z,15.00
2023-05-09T03:43:31.946Z,16.07
2023-05-09T03:46:00.346Z,15.23
2023-05-09T03:48:30.291Z,15.57
2023-05-09T03:50:58.637Z,16.17
2023-05-09T03:53:27.123Z,16.67
2023-05-09T03:55:55.526Z,15.80
2023-05-09T03:58:23.894Z,17.00
2023-05-09T04:00:52.288Z,17.00
2023-05-09T04:03:20.867Z,16.57
2023-05-09T04:05:50.684Z,16.90
2023-05-09T04:08:18.962Z,16.53
2023-05-09T04:10:47.365Z,16.50
2023-05-09T04:13:16.502Z,15.73
2023-05-09T04:15:45.108Z,15.83
2023-05-09T04:18:13.404Z,17.03
2023-05-09T04:20:41.904Z,17.10
2023-05-09T04:23:11.700Z,16.67
2023-05-09T04:25:40.423Z,16.60
2023-05-09T04:28:08.727Z,16.83
2023-05-09T04:30:37.597Z,17.50
2023-05-09T04:33:06.426Z,17.43
2023-05-09T04:35:34.884Z,18.53
2023-05-09T04:38:04.923Z,17.60
2023-05-09T04:40:34.811Z,17.63
2023-05-09T04:43:03.302Z,17.77
2023-05-09T04:45:31.846Z,18.97
2023-05-09T04:48:00.412Z,18.17
2023-05-09T04:50:28.762Z,18.90
2023-05-09T04:52:57.327Z,18.10
2023-05-09T04:55:25.942Z,18.63
2023-05-09T04:57:55.735Z,20.10
2023-05-09T05:00:24.306Z,19.73
2023-05-09T05:02:52.623Z,18.77
2023-05-09T05:05:25.079Z,18.23
2023-05-09T05:07:54.520Z,18.47
2023-05-09T05:10:22.792Z,19.37
2023-05-09T05:12:51.279Z,19.23
2023-05-09T05:15:21.048Z,19.77
2023-05-09T05:17:49.479Z,18.83
2023-05-09T05:20:17.896Z,19.00
2023-05-09T05:22:46.225Z,19.60
2023-05-09T05:25:15.197Z,19.00
2023-05-09T05:27:43.814Z,18.37
2023-05-09T05:30:12.589Z,18.63
2023-05-09T05:32:42.366Z,18.07
2023-05-09T05:35:11.954Z,18.67
2023-05-09T05:37:40.814Z,19.20
2023-05-09T05:40:11.700Z,17.37
2023-05-09T05:42:40.332Z,17.63
2023-05-09T05:45:10.724Z,17.43
2023-05-09T05:47:39.186Z,17.73
2023-05-09T05:50:12.028Z,18.13
2023-05-09T05:52:40.623Z,16.53
2023-05-09T05:55:09.413Z,16.87
2023-05-09T05:57:39.069Z,17.50
2023-05-09T06:00:10.493Z,16.83
2023-05-09T06:02:39.093Z,16.60
2023-05-09T06:05:09.689Z,15.33
2023-05-09T06:07:38.009Z,15.67
2023-05-09T06:10:06.785Z,15.90
2023-05-09T06:12:35.092Z,15.03
2023-05-09T06:15:05.154Z,15.60
2023-05-09T06:17:33.559Z,15.03
2023-05-09T06:20:02.053Z,15.13
2023-05-09T06:22:31.788Z,14.77
2023-05-09T06:25:00.187Z,15.53
2023-05-09T06:27:28.527Z,15.23
2023-05-09T06:29:56.949Z,15.10
2023-05-09T06:32:25.901Z,14.53
2023-05-09T06:34:54.326Z,14.83
2023-05-09T06:37:22.667Z,15.33
2023-05-09T06:39:52.452Z,14.20
2023-05-09T06:42:20.974Z,14.40
2023-05-09T06:44:49.315Z,14.53
2023-05-09T06:47:17.645Z,13.50
2023-05-09T06:49:45.995Z,11.80
2023-05-09T06:52:15.820Z,11.23
2023-05-09T06:54:44.175Z,10.70
2023-05-09T06:57:13.913Z,10.37
2023-05-09T06:59:42.244Z,7.87
2023-05-09T07:02:10.559Z,9.97
2023-05-09T07:04:39.050Z,7.50
2023-05-09T07:07:07.486Z,7.33
2023-05-09T07:09:35.956Z,7.60
2023-05-09T07:12:04.273Z,7.00
2023-05-09T07:14:34.037Z,7.40
2023-05-09T07:17:13.734Z,6.20
2023-05-09T07:19:47.222Z,6.47
2023-05-09T07:22:15.560Z,6.43
2023-05-09T07:24:44.264Z,6.83
2023-05-09T07:27:12.665Z,6.97
2023-05-09T07:29:42.421Z,6.70
2023-05-09T07:32:11.115Z,7.63
2023-05-09T07:34:39.456Z,7.37
2023-05-09T07:37:08.114Z,7.50
2023-05-09T07:39:36.437Z,7.80
2023-05-09T07:42:05.321Z,7.63
2023-05-09T07:44:33.670Z,8.03
2023-05-09T07:47:05.372Z,7.90
2023-05-09T07:49:33.731Z,8.97
2023-05-09T07:52:02.299Z,8.83
2023-05-09T07:54:30.655Z,9.20
2023-05-09T07:56:58.947Z,10.03
2023-05-09T07:59:27.419Z,10.33
2023-05-09T08:01:55.923Z,10.87
2023-05-09T08:04:25.910Z,11.20
2023-05-09T08:06:54.411Z,11.57
2023-05-09T08:09:22.787Z,11.73
2023-05-09T08:11:51.101Z,12.17
2023-05-09T08:14:19.464Z,11.40
2023-05-09T08:16:47.775Z,11.77
2023-05-09T08:19:16.273Z,13.10
2023-05-09T08:21:46.773Z,12.33
2023-05-09T08:24:15.167Z,13.47
2023-05-09T08:26:44.226Z,13.30
2023-05-09T08:29:12.726Z,13.70
2023-05-09T08:31:41.205Z,13.77
2023-05-09T08:34:09.728Z,12.73
2023-05-09T08:36:38.097Z,13.43
2023-05-09T08:39:09.436Z,12.93
2023-05-09T08:41:37.863Z,13.83
2023-05-09T08:44:06.437Z,13.47
2023-05-09T08:46:36.055Z,13.40
2023-05-09T08:49:04.761Z,14.33
2023-05-09T08:51:33.153Z,14.97
2023-05-09T08:54:01.572Z,14.43
2023-05-09T08:56:31.406Z,15.67
2023-05-09T08:58:59.744Z,15.20
2023-05-09T09:01:28.177Z,16.03
2023-05-09T09:03:56.560Z,14.33
2023-05-09T09:06:26.103Z,15.17
2023-05-09T09:08:54.585Z,15.20
2023-05-09T09:11:23.435Z,15.73
2023-05-09T09:13:53.387Z,16.63
2023-05-09T09:16:22.533Z,16.27
2023-05-09T09:18:51.396Z,16.87
2023-05-09T09:21:19.720Z,15.17
2023-05-09T09:23:48.467Z,15.67
2023-05-09T09:26:16.795Z,15.00
2023-05-09T09:28:45.190Z,15.17
2023-05-09T09:31:24.403Z,15.43
2023-05-09T09:33:52.716Z,15.70
2023-05-09T09:36:28.443Z,15.47
2023-05-09T09:38:58.672Z,15.10
2023-05-09T09:41:31.726Z,15.47
2023-05-09T09:44:00.000Z,15.63
2023-05-09T09:46:29.737Z,15.87
2023-05-09T09:48:58.096Z,14.60
2023-05-09T09:51:30.083Z,15.00
2023-05-09T09:53:58.446Z,13.97
2023-05-09T09:56:40.290Z,14.10
2023-05-09T09:59:12.232Z,13.77
2023-05-09T10:02:01.578Z,12.60
2023-05-09T10:04:31.935Z,13.10
2023-05-09T10:07:00.657Z,13.37
2023-05-09T10:09:29.558Z,14.20
2023-05-09T10:11:58.100Z,13.53
2023-05-09T10:14:27.410Z,14.00
2023-05-09T10:16:57.416Z,14.13
2023-05-09T10:19:29.590Z,15.13
2023-05-09T10:21:58.300Z,14.10
2023-05-09T10:24:29.502Z,13.83
2023-05-09T10:26:59.392Z,14.57
2023-05-09T10:29:27.768Z,13.53
2023-05-09T10:31:56.377Z,13.87
2023-05-09T10:34:24.853Z,13.67
2023-05-09T10:36:54.695Z,14.07
2023-05-09T10:39:23.946Z,13.00
2023-05-09T10:41:52.383Z,13.50
2023-05-09T10:44:20.704Z,11.97
2023-05-09T10:46:49.234Z,11.37
2023-05-09T10:49:17.630Z,11.60
2023-05-09T10:51:46.935Z,12.13
2023-05-09T10:54:17.156Z,10.30
2023-05-09T10:56:45.594Z,8.17
2023-05-09T10:59:28.998Z,9.20
2023-05-09T11:02:00.974Z,7.60
2023-05-09T11:04:29.512Z,8.53
2023-05-09T11:06:57.886Z,8.60
2023-05-09T11:09:32.995Z,8.20
2023-05-09T11:12:03.658Z,8.10
2023-05-09T11:14:32.510Z,8.10
2023-05-09T11:17:00.879Z,8.13
2023-05-09T11:19:36.397Z,7.73
2023-05-09T11:22:06.867Z,9.73
2023-05-09T11:24:36.927Z,8.63
2023-05-09T11:27:06.907Z,9.23
2023-05-09T11:29:44.781Z,8.23
2023-05-09T11:32:15.152Z,7.17
2023-05-09T11:34:44.763Z,6.40
2023-05-09T11:37:13.305Z,7.10
2023-05-09T11:39:59.156Z,7.53
2023-05-09T11:42:27.630Z,7.23
2023-05-09T11:44:55.975Z,6.20
2023-05-09T11:47:24.259Z,7.10
2023-05-09T11:49:52.589Z,6.63
2023-05-09T11:52:21.791Z,6.13
2023-05-09T11:54:50.350Z,6.90
2023-05-09T11:57:20.177Z,6.47
2023-05-09T11:59:48.536Z,7.20
2023-05-09T12:02:16.950Z,6.90
2023-05-09T12:04:45.347Z,6.83
2023-05-09T12:07:13.797Z,7.47
2023-05-09T12:09:43.588Z,7.67
2023-05-09T12:12:12.705Z,7.90
2023-05-09T12:14:43.118Z,8.40
2023-05-09T12:17:11.379Z,8.53
2023-05-09T12:19:39.858Z,9.10
2023-05-09T12:22:08.557Z,9.33
2023-05-09T12:24:37.314Z,8.73
2023-05-09T12:27:07.911Z,8.03
2023-05-09T12:29:36.240Z,7.17
2023-05-09T12:32:06.308Z,7.43
2023-05-09T12:34:34.685Z,6.70
2023-05-09T12:37:03.858Z,6.90
2023-05-09T12:39:32.329Z,6.80
2023-05-09T12:42:02.332Z,7.33
2023-05-09T12:44:31.644Z,7.13
2023-05-09T12:47:03.179Z,7.43
2023-05-09T12:49:38.628Z,7.10
2023-05-09T12:52:09.097Z,7.37
2023-05-09T12:54:38.627Z,7.60
2023-05-09T12:57:07.577Z,8.20
2023-05-09T12:59:41.140Z,7.67
2023-05-09T13:02:13.633Z,7.93
2023-05-09T13:04:53.645Z,8.17
2023-05-09T13:07:22.124Z,7.70
2023-05-09T13:09:58.238Z,7.87
2023-05-09T13:12:30.194Z,7.90
2023-05-09T13:14:59.221Z,7.63
2023-05-09T13:17:27.631Z,7.83
2023-05-09T13:19:57.756Z,7.90
2023-05-09T13:22:27.010Z,7.67
2023-05-09T13:24:56.681Z,7.50
2023-05-09T13:27:25.300Z,8.37
2023-05-09T13:29:53.949Z,7.97
2023-05-09T13:32:22.508Z,7.83
2023-05-09T13:34:50.831Z,7.07
2023-05-09T13:37:22.004Z,7.80
2023-05-09T13:39:50.398Z,7.57
2023-05-09T13:42:22.268Z,8.50
2023-05-09T13:44:51.046Z,7.83
2023-05-09T13:47:20.050Z,8.33
2023-05-09T13:49:48.741Z,8.33
2023-05-09T13:52:18.120Z,8.47
2023-05-09T13:54:48.377Z,8.43
2023-05-09T13:57:20.011Z,8.10
2023-05-09T13:59:48.824Z,8.87
2023-05-09T14:02:18.950Z,8.80
2023-05-09T14:04:47.818Z,8.43
2023-05-09T14:07:19.932Z,8.67
2023-05-09T14:09:56.237Z,8.23
2023-05-09T14:12:30.825Z,8.03
2023-05-09T14:15:00.651Z,8.47
2023-05-09T14:17:30.662Z,8.03
2023-05-09T14:19:59.484Z,8.13
2023-05-09T14:22:28.651Z,8.80
2023-05-09T14:25:03.454Z,9.03
2023-05-09T14:27:32.639Z,8.83
2023-05-09T14:30:01.827Z,8.80
2023-05-09T14:32:30.101Z,8.67
2023-05-09T14:34:59.958Z,8.73
2023-05-09T14:37:32.107Z,8.87
2023-05-09T14:40:05.831Z,8.47
2023-05-09T14:42:38.010Z,7.63
2023-05-09T14:45:07.795Z,7.10
2023-05-09T14:47:37.167Z,6.33
2023-05-09T14:50:07.579Z,5.80
2023-05-09T14:52:37.010Z,5.30
2023-05-09T14:55:08.585Z,5.70
2023-05-09T14:57:38.648Z,5.47
2023-05-09T15:00:20.633Z,5.60
2023-05-09T15:02:51.242Z,5.03
2023-05-09T15:05:21.365Z,4.90
2023-05-09T15:07:52.252Z,4.90
2023-05-09T15:10:22.196Z,5.10
2023-05-09T15:12:53.026Z,4.13
2023-05-09T15:15:23.960Z,4.30
2023-05-09T15:17:53.315Z,3.90
2023-05-09T15:20:23.422Z,3.50
2023-05-09T15:22:53.511Z,3.33
2023-05-09T15:25:24.307Z,3.87
2023-05-09T15:27:54.180Z,2.90
2023-05-09T15:30:23.553Z,3.13
2023-05-09T15:32:53.992Z,5.43
2023-05-09T15:35:24.426Z,5.87
2023-05-09T15:37:55.032Z,6.70
2023-05-09T15:40:30.137Z,7.40
2023-05-09T15:43:07.973Z,7.73
2023-05-09T15:45:45.775Z,8.30
2023-05-09T15:48:14.584Z,11.87
2023-05-09T15:50:49.963Z,11.00
2023-05-09T15:53:19.060Z,12.07
2023-05-09T15:55:49.572Z,13.33
2023-05-09T15:58:27.536Z,11.17
2023-05-09T16:00:59.775Z,9.40
2023-05-09T16:03:29.260Z,8.23
2023-05-09T16:05:58.224Z,8.13
2023-05-09T16:08:27.326Z,6.20
2023-05-09T16:11:01.363Z,6.70
2023-05-09T16:13:30.257Z,7.57
2023-05-09T16:15:59.065Z,7.10
2023-05-09T16:18:29.333Z,7.53
2023-05-09T16:20:58.518Z,7.33
2023-05-09T16:23:29.138Z,7.33
2023-05-09T16:25:59.634Z,6.63
2023-05-09T16:28:29.550Z,7.40
2023-05-09T16:31:04.984Z,6.07
2023-05-09T16:33:34.343Z,5.67
2023-05-09T16:36:02.637Z,4.97
2023-05-09T16:38:31.301Z,4.70
2023-05-09T16:41:01.019Z,4.20
2023-05-09T16:43:30.672Z,4.27
2023-05-09T16:45:59.412Z,4.07
2023-05-09T16:48:27.923Z,3.53
2023-05-09T16:50:56.255Z,5.33
2023-05-09T16:53:27.986Z,4.10
2023-05-09T16:55:56.974Z,4.13
2023-05-09T16:58:27.353Z,4.00
2023-05-09T17:00:56.161Z,3.60
2023-05-09T17:03:24.622Z,4.00
2023-05-09T17:05:52.987Z,3.90
2023-05-09T17:08:21.349Z,3.93
2023-05-09T17:10:49.918Z,3.93
2023-05-09T17:13:18.284Z,4.43
2023-05-09T17:15:48.293Z,4.23
2023-05-09T17:18:22.059Z,3.77
2023-05-09T17:20:58.067Z,4.13
2023-05-09T17:23:26.401Z,4.47
2023-05-09T17:25:54.774Z,3.93
2023-05-09T17:28:23.597Z,4.10
2023-05-09T17:30:53.389Z,3.87
2023-05-09T17:33:22.205Z,4.23
2023-05-09T17:35:50.655Z,3.80
2023-05-09T17:38:19.249Z,3.77
2023-05-09T17:40:47.987Z,3.93
2023-05-09T17:43:19.604Z,3.83
2023-05-09T17:45:48.116Z,3.97
2023-05-09T17:48:18.293Z,3.90
2023-05-09T17:50:47.464Z,3.77
2023-05-09T17:53:15.949Z,4.17
2023-05-09T17:55:44.437Z,4.30
2023-05-09T17:58:14.765Z,4.17
2023-05-09T18:00:43.345Z,4.70
2023-05-09T18:03:11.894Z,4.47
2023-05-09T18:05:41.913Z,4.40
2023-05-09T18:08:10.292Z,4.97
2023-05-09T18:10:38.924Z,4.17
2023-05-09T18:13:07.780Z,3.87
2023-05-09T18:15:38.388Z,3.70
2023-05-09T18:18:07.083Z,3.23
2023-05-09T18:20:36.075Z,3.57
2023-05-09T18:23:05.883Z,3.50
2023-05-09T18:25:34.901Z,3.57
2023-05-09T18:28:03.514Z,3.37
2023-05-09T18:30:32.167Z,3.90
2023-05-09T18:33:02.810Z,4.50
2023-05-09T18:35:31.607Z,4.97
2023-05-09T18:38:00.130Z,7.17
2023-05-09T18:40:29.926Z,8.17
2023-05-09T18:42:58.232Z,9.77
2023-05-09T18:45:26.615Z,10.00
2023-05-09T18:47:54.912Z,12.50
2023-05-09T18:50:23.362Z,12.67
2023-05-09T18:52:51.730Z,11.90
2023-05-09T18:55:21.938Z,12.97
2023-05-09T18:57:51.986Z,13.37
2023-05-09T19:00:20.829Z,14.17
2023-05-09T19:02:49.268Z,14.33
2023-05-09T19:05:17.667Z,14.53
2023-05-09T19:07:46.214Z,14.73
2023-05-09T19:10:17.897Z,15.37
2023-05-09T19:12:46.540Z,15.97
2023-05-09T19:15:16.506Z,16.00
2023-05-09T19:17:44.934Z,17.17
2023-05-09T19:20:14.205Z,17.33
2023-05-09T19:22:46.430Z,15.97
2023-05-09T19:25:15.516Z,16.30
2023-05-09T19:27:44.151Z,17.20
2023-05-09T19:30:15.422Z,16.50
2023-05-09T19:32:45.610Z,15.53
2023-05-09T19:35:13.987Z,16.37
2023-05-09T19:37:42.952Z,16.37
2023-05-09T19:40:12.015Z,17.00
2023-05-09T19:42:42.072Z,17.00
2023-05-09T19:45:11.655Z,16.10
2023-05-09T19:47:40.507Z,17.07
2023-05-09T19:50:11.320Z,18.27
2023-05-09T19:52:46.227Z,17.40
2023-05-09T19:55:15.322Z,17.83
2023-05-09T19:57:44.006Z,17.93
2023-05-09T20:00:13.315Z,17.53
2023-05-09T20:02:42.099Z,17.60
2023-05-09T20:05:13.507Z,17.90
2023-05-09T20:07:48.962Z,17.83
2023-05-09T20:10:20.682Z,17.93
2023-05-09T20:12:49.841Z,17.57
2023-05-09T20:15:18.946Z,17.20
2023-05-09T20:17:48.456Z,19.80
2023-05-09T20:20:19.132Z,19.73
2023-05-09T20:22:47.893Z,18.83
2023-05-09T20:25:16.247Z,19.63
2023-05-09T20:27:45.088Z,19.03
2023-05-09T20:30:14.106Z,19.30
2023-05-09T20:32:46.153Z,19.80
2023-05-09T20:35:14.904Z,20.27
2023-05-09T20:37:51.163Z,20.63
2023-05-09T20:40:21.947Z,20.83
2023-05-09T20:42:51.242Z,22.43
2023-05-09T20:45:23.192Z,20.53
2023-05-09T20:47:52.216Z,20.97
2023-05-09T20:50:21.245Z,22.40
2023-05-09T20:52:51.209Z,22.13
2023-05-09T20:55:19.799Z,23.33
2023-05-09T20:57:48.342Z,22.63
2023-05-09T21:00:17.345Z,22.20
2023-05-09T21:02:46.381Z,22.57
2023-05-09T21:05:14.991Z,21.63
2023-05-09T21:07:43.641Z,22.60
2023-05-09T21:10:13.993Z,21.63
2023-05-09T21:12:42.516Z,22.20
2023-05-09T21:15:11.821Z,23.20
2023-05-09T21:17:40.263Z,22.77
2023-05-09T21:20:09.579Z,22.13
2023-05-09T21:22:37.995Z,22.33
2023-05-09T21:25:07.120Z,23.07
2023-05-09T21:27:37.968Z,23.40
2023-05-09T21:30:07.055Z,22.33
2023-05-09T21:32:35.801Z,21.83
2023-05-09T21:35:07.346Z,22.53
2023-05-09T21:37:36.642Z,23.30
2023-05-09T21:40:05.881Z,23.97
2023-05-09T21:42:35.874Z,23.10
2023-05-09T21:45:05.915Z,22.93
2023-05-09T21:47:34.416Z,23.23
2023-05-09T21:50:04.146Z,23.93
2023-05-09T21:52:32.681Z,23.23
2023-05-09T21:55:01.483Z,23.80
2023-05-09T21:57:29.919Z,22.77
2023-05-09T22:00:01.375Z,22.80
2023-05-09T22:02:31.289Z,22.37
2023-05-09T22:04:59.851Z,22.87
2023-05-09T22:07:28.283Z,22.33
2023-05-09T22:09:56.591Z,22.60
2023-05-09T22:12:24.924Z,22.03
2023-05-09T22:14:56.618Z,22.00
2023-05-09T22:17:26.207Z,22.03
2023-05-09T22:19:56.412Z,22.40
2023-05-09T22:22:24.794Z,21.27
2023-05-09T22:24:53.077Z,21.80
2023-05-09T22:27:21.665Z,21.03
2023-05-09T22:29:49.922Z,20.77
2023-05-09T22:32:18.363Z,21.10
2023-05-09T22:34:49.078Z,20.57
2023-05-09T22:37:18.809Z,19.97
2023-05-09T22:39:47.528Z,19.57
2023-05-09T22:42:16.052Z,18.83
2023-05-09T22:44:44.768Z,19.47
2023-05-09T22:47:14.671Z,18.80
2023-05-09T22:49:45.673Z,18.70
2023-05-09T22:52:14.525Z,18.57
2023-05-09T22:54:44.320Z,19.00
2023-05-09T22:57:13.326Z,18.50
2023-05-09T22:59:41.808Z,18.80
2023-05-09T23:02:10.608Z,18.07
2023-05-09T23:04:39.962Z,18.40
2023-05-09T23:07:08.730Z,18.77
2023-05-09T23:09:37.071Z,18.30
2023-05-09T23:12:07.270Z,17.23
2023-05-09T23:14:35.645Z,18.13
2023-05-09T23:17:04.015Z,19.07
2023-05-09T23:19:32.881Z,18.93
2023-05-09T23:22:01.484Z,19.80
2023-05-09T23:24:29.862Z,20.43
2023-05-09T23:26:58.361Z,18.47
2023-05-09T23:29:28.300Z,17.60
2023-05-09T23:31:56.774Z,19.13
2023-05-09T23:34:25.286Z,18.47
2023-05-09T23:36:53.595Z,18.23
2023-05-09T23:39:21.880Z,18.87
2023-05-09T23:41:50.248Z,17.83
2023-05-09T23:44:18.710Z,19.20
2023-05-09T23:46:48.571Z,19.10
2023-05-09T23:49:17.141Z,19.60
2023-05-09T23:51:45.716Z,19.87
2023-05-09T23:54:14.050Z,20.73
2023-05-09T23:56:42.308Z,20.53
2023-05-09T23:59:10.737Z,20.83
